Time;durP1;ratioP1;P1;durP2;ratioP2;P2;SDS_P1;SDS_P2;PMS_P1;PMS_P2;Temp;Humidity;BMP_temperature;BMP_pressure;BME280_temperature;BME280_humidity;BME280_pressure;Samples;Min_cycle;Max_cycle;Signal;HPM_P1;HPM_P2
2021/12/18 14:27:53;;;;;;;9.98;6.10;;;26.80;90.40;;;;;;5100879;27;20422;-51
2021/12/18 14:30:29;;;;;;;10.32;6.32;;;26.90;90.50;;;;;;5080180;28;20031;-54
2021/12/18 14:33:17;;;;;;;14.48;6.07;;;26.90;90.60;;;;;;5077287;28;20178;-49
2021/12/18 14:35:53;;;;;;;13.55;6.60;;;26.90;90.50;;;;;;5075899;28;20036;-51
2021/12/18 14:38:23;;;;;;;11.00;6.13;;;26.80;90.50;;;;;;5081337;28;20100;-49
2021/12/18 14:41:03;;;;;;;10.90;6.22;;;26.80;90.30;;;;;;5082169;28;20092;-53
2021/12/18 14:43:30;;;;;;;12.02;5.85;;;26.80;90.20;;;;;;5080674;28;20021;-54
2021/12/18 14:45:57;;;;;;;14.77;5.90;;;26.80;90.10;;;;;;5080913;28;20108;-50
2021/12/18 14:48:34;;;;;;;10.82;6.25;;;26.80;90.10;;;;;;5080158;28;20028;-54
2021/12/18 14:51:00;;;;;;;10.73;6.03;;;26.80;90.10;;;;;;5080542;28;20029;-55
2021/12/18 14:53:27;;;;;;;10.05;5.97;;;26.80;90.10;;;;;;5080616;28;20047;-52
2021/12/18 14:56:00;;;;;;;10.98;6.00;;;26.80;90.30;;;;;;5080742;28;20029;-52
2021/12/18 14:58:39;;;;;;;10.65;5.93;;;26.80;90.40;;;;;;5079716;28;20024;-55
2021/12/18 15:01:14;;;;;;;9.32;6.03;;;26.80;90.50;;;;;;5080598;28;20075;-51
2021/12/18 15:03:48;;;;;;;10.18;5.63;;;26.80;90.40;;;;;;5079587;28;20048;-53
2021/12/18 15:06:21;;;;;;;10.85;5.80;;;26.80;90.40;;;;;;5080178;28;20052;-57
2021/12/18 15:08:54;;;;;;;12.40;5.82;;;26.90;90.80;;;;;;5080195;28;20029;-55
2021/12/18 15:11:37;;;;;;;11.07;5.90;;;26.90;90.50;;;;;;5080537;28;20028;-51
2021/12/18 15:14:06;;;;;;;10.75;6.18;;;26.90;90.50;;;;;;5079957;28;20016;-52
2021/12/18 15:16:43;;;;;;;11.70;6.18;;;26.90;90.50;;;;;;5080337;28;20029;-48
2021/12/18 15:19:24;;;;;;;11.48;5.60;;;26.90;90.50;;;;;;5077909;28;20021;-53
2021/12/18 15:21:53;;;;;;;11.63;6.32;;;26.90;90.50;;;;;;5060518;28;20209;-54
2021/12/18 15:24:20;;;;;;;12.13;6.18;;;26.90;90.40;;;;;;5077291;28;20016;-55
2021/12/18 15:26:49;;;;;;;9.68;5.82;;;27.00;90.40;;;;;;5077024;28;20069;-54
2021/12/18 15:29:20;;;;;;;10.23;6.40;;;27.00;90.40;;;;;;5066469;28;20028;-51
2021/12/18 15:31:48;;;;;;;9.52;6.18;;;27.00;90.30;;;;;;5066469;28;20025;-53
2021/12/18 15:34:16;;;;;;;12.15;6.32;;;27.10;90.40;;;;;;5064879;28;20021;-51
2021/12/18 15:36:47;;;;;;;10.88;5.95;;;27.10;90.30;;;;;;5052849;28;20033;-60
2021/12/18 15:39:14;;;;;;;10.45;6.28;;;27.10;90.20;;;;;;5064629;28;20029;-55
2021/12/18 15:41:41;;;;;;;10.05;6.00;;;27.10;90.20;;;;;;5056534;28;20034;-51
2021/12/18 15:44:08;;;;;;;10.35;5.75;;;27.20;90.10;;;;;;5054360;28;20045;-53
2021/12/18 15:46:35;;;;;;;13.70;6.30;;;27.20;90.00;;;;;;5061998;28;20217;-52
2021/12/18 15:49:04;;;;;;;13.20;6.68;;;27.20;88.60;;;;;;5061487;28;20320;-51
2021/12/18 15:51:32;;;;;;;18.50;5.80;;;27.20;88.80;;;;;;5056586;28;20384;-54
2021/12/18 15:53:59;;;;;;;13.57;5.95;;;27.30;88.30;;;;;;5059083;28;20025;-50
2021/12/18 15:56:27;;;;;;;10.07;6.13;;;27.30;88.40;;;;;;5054056;28;20048;-49
2021/12/18 15:58:54;;;;;;;12.73;7.28;;;27.30;88.60;;;;;;5050937;28;20025;-55
2021/12/18 16:01:21;;;;;;;14.48;7.97;;;27.30;86.80;;;;;;5054896;28;20017;-53
2021/12/18 16:03:48;;;;;;;11.65;6.57;;;27.40;85.50;;;;;;5045973;28;20029;-53
2021/12/18 16:06:16;;;;;;;9.50;5.60;;;27.40;84.70;;;;;;5062859;28;20032;-51
2021/12/18 16:08:48;;;;;;;10.55;5.53;;;27.50;84.20;;;;;;5059322;28;20085;-52
2021/12/18 16:11:16;;;;;;;14.20;5.80;;;27.60;82.30;;;;;;5052834;28;20036;-48
2021/12/18 16:13:43;;;;;;;12.18;6.00;;;27.50;82.60;;;;;;5048639;28;20083;-46
2021/12/18 16:16:10;;;;;;;12.63;5.95;;;27.50;83.40;;;;;;5060164;28;20092;-59
2021/12/18 16:18:39;;;;;;;12.98;5.68;;;27.50;83.80;;;;;;5054338;28;20013;-52
2021/12/18 16:21:07;;;;;;;11.23;5.60;;;27.50;84.20;;;;;;5051547;28;20018;-53
2021/12/18 16:23:36;;;;;;;9.82;5.82;;;27.60;84.30;;;;;;5055110;28;20213;-55
2021/12/18 16:26:03;;;;;;;13.90;6.00;;;27.60;84.60;;;;;;5056029;28;20086;-50
2021/12/18 16:28:30;;;;;;;13.43;5.65;;;27.60;84.30;;;;;;5054514;28;20040;-47
2021/12/18 16:30:56;;;;;;;11.68;5.65;;;27.60;84.10;;;;;;5054747;28;20025;-54
2021/12/18 16:33:32;;;;;;;10.77;5.22;;;27.60;84.00;;;;;;5050791;28;20017;-49
2021/12/18 16:35:59;;;;;;;12.50;5.60;;;27.60;83.90;;;;;;5050737;28;20025;-53
2021/12/18 16:38:37;;;;;;;13.18;5.43;;;27.60;83.70;;;;;;5054910;28;20028;-51
2021/12/18 16:41:06;;;;;;;10.85;5.50;;;27.60;82.40;;;;;;5055397;28;20021;-52
2021/12/18 16:43:33;;;;;;;11.82;5.65;;;27.70;82.50;;;;;;5065039;28;20305;-49
2021/12/18 16:46:00;;;;;;;14.68;5.80;;;27.70;82.20;;;;;;5065341;28;20044;-51
2021/12/18 16:48:28;;;;;;;17.23;5.70;;;27.70;82.10;;;;;;5065121;28;20013;-50
2021/12/18 16:50:54;;;;;;;15.27;5.50;;;27.70;82.20;;;;;;5064588;28;20021;-54
2021/12/18 16:53:21;;;;;;;11.68;5.25;;;27.70;82.10;;;;;;5065019;28;20304;-50
2021/12/18 16:55:48;;;;;;;15.60;5.45;;;27.70;82.20;;;;;;5065158;28;20033;-54
2021/12/18 16:58:15;;;;;;;11.85;5.53;;;27.70;81.90;;;;;;5062010;28;20028;-55
2021/12/18 17:00:42;;;;;;;15.70;5.40;;;27.70;81.80;;;;;;5064396;28;20029;-54
2021/12/18 17:03:08;;;;;;;14.77;5.20;;;27.70;81.70;;;;;;5064679;28;20058;-52
2021/12/18 17:05:39;;;;;;;11.63;5.45;;;27.80;80.30;;;;;;5059753;28;20036;-49
2021/12/18 17:08:06;;;;;;;12.38;5.03;;;27.80;80.60;;;;;;5057397;28;20028;-51
2021/12/18 17:10:34;;;;;;;12.90;4.85;;;27.90;80.70;;;;;;5062334;28;20324;-48
2021/12/18 17:13:01;;;;;;;11.23;4.90;;;27.90;80.00;;;;;;5063678;28;20024;-51
2021/12/18 17:15:28;;;;;;;13.80;5.38;;;28.00;79.10;;;;;;5048093;28;20268;-43
2021/12/18 17:17:54;;;;;;;12.15;4.88;;;28.10;78.70;;;;;;5055062;28;20201;-49
2021/12/18 17:20:21;;;;;;;12.98;5.10;;;28.10;78.50;;;;;;5063699;28;20052;-55
2021/12/18 17:22:48;;;;;;;13.75;5.03;;;28.00;79.00;;;;;;5058110;28;20028;-50
2021/12/18 17:25:15;;;;;;;10.07;4.60;;;28.00;79.80;;;;;;5033915;28;20224;-48
2021/12/18 17:27:43;;;;;;;15.15;5.15;;;28.00;80.10;;;;;;5058055;28;20060;-45
2021/12/18 17:30:12;;;;;;;10.68;4.72;;;28.00;80.40;;;;;;5058516;28;20017;-43
2021/12/18 17:32:39;;;;;;;10.05;4.90;;;28.00;80.50;;;;;;5061134;28;20022;-47
2021/12/18 17:35:07;;;;;;;12.00;4.70;;;28.00;80.80;;;;;;5052392;28;20009;-47
2021/12/18 17:37:33;;;;;;;11.20;4.63;;;27.90;80.70;;;;;;5054390;28;20329;-48
2021/12/18 17:40:01;;;;;;;11.35;5.03;;;28.00;81.00;;;;;;5054867;28;20116;-46
2021/12/18 17:42:27;;;;;;;10.07;5.13;;;28.00;81.10;;;;;;5062493;28;20020;-50
2021/12/18 17:44:54;;;;;;;15.20;5.30;;;28.00;80.90;;;;;;5063971;28;20020;-46
2021/12/18 17:47:21;;;;;;;14.38;5.00;;;28.00;80.80;;;;;;5064166;28;20025;-42
2021/12/18 17:49:47;;;;;;;9.60;4.82;;;28.00;80.90;;;;;;5063459;28;20021;-45
2021/12/18 17:52:14;;;;;;;11.80;5.47;;;28.00;80.90;;;;;;5064307;28;20039;-50
2021/12/18 17:54:40;;;;;;;11.98;4.97;;;28.00;81.10;;;;;;5062762;28;20091;-46
2021/12/18 17:57:07;;;;;;;9.88;5.30;;;28.00;81.30;;;;;;5064133;28;20029;-51
2021/12/18 17:59:33;;;;;;;9.70;5.03;;;28.00;81.50;;;;;;5063317;28;20055;-42
2021/12/18 18:02:00;;;;;;;11.13;5.13;;;28.10;81.50;;;;;;5062551;28;20083;-48
2021/12/18 18:04:27;;;;;;;7.78;4.40;;;28.00;81.40;;;;;;5062020;28;20040;-48
2021/12/18 18:06:53;;;;;;;14.32;5.50;;;28.10;81.20;;;;;;5062986;28;20028;-46
2021/12/18 18:09:20;;;;;;;12.82;5.38;;;28.10;81.20;;;;;;5062973;28;20332;-46
2021/12/18 18:11:47;;;;;;;7.72;4.60;;;28.10;81.40;;;;;;5063956;28;20092;-55
2021/12/18 18:14:13;;;;;;;11.15;5.35;;;28.10;81.60;;;;;;5063555;28;20032;-46
2021/12/18 18:16:41;;;;;;;11.00;4.82;;;28.10;81.70;;;;;;5063835;28;20323;-50
2021/12/18 18:19:08;;;;;;;11.40;4.72;;;28.10;81.80;;;;;;5060714;28;20019;-49
2021/12/18 18:21:34;;;;;;;9.02;4.28;;;28.20;82.20;;;;;;5060650;28;20336;-50
2021/12/18 18:24:01;;;;;;;13.10;4.70;;;28.30;82.20;;;;;;5063017;28;20063;-43
2021/12/18 18:26:27;;;;;;;14.65;4.78;;;28.30;82.00;;;;;;5061349;28;20324;-45
2021/12/18 18:28:54;;;;;;;8.20;4.20;;;28.30;81.90;;;;;;5053659;28;20053;-46
2021/12/18 18:31:21;;;;;;;11.95;4.90;;;28.40;81.50;;;;;;5061098;28;20037;-49
2021/12/18 18:33:47;;;;;;;11.85;4.72;;;28.40;81.40;;;;;;5052404;28;20017;-42
2021/12/18 18:36:14;;;;;;;9.52;4.32;;;28.40;81.70;;;;;;5053133;28;20029;-52
2021/12/18 18:38:41;;;;;;;9.30;4.80;;;28.40;81.30;;;;;;5054183;28;20216;-47
2021/12/18 18:41:08;;;;;;;10.93;4.32;;;28.40;81.10;;;;;;5053749;28;20331;-43
2021/12/18 18:43:38;;;;;;;12.48;4.40;;;28.40;81.30;;;;;;5048181;28;20045;-47
2021/12/18 18:46:14;;;;;;;10.52;5.05;;;28.40;81.30;;;;;;5043527;28;20201;-47
2021/12/18 18:48:43;;;;;;;10.32;4.97;;;28.40;81.40;;;;;;5043262;28;20025;-49
2021/12/18 18:51:12;;;;;;;13.02;5.20;;;28.40;81.50;;;;;;5043574;28;20060;-43
2021/12/18 18:53:39;;;;;;;10.65;4.43;;;28.40;81.50;;;;;;5043361;28;20331;-45
2021/12/18 18:56:06;;;;;;;9.15;4.10;;;28.40;79.60;;;;;;5045125;28;20038;-55
2021/12/18 18:58:33;;;;;;;8.43;4.20;;;28.40;80.10;;;;;;5057716;28;20244;-44
2021/12/18 19:01:02;;;;;;;10.95;4.30;;;28.50;79.40;;;;;;5063233;28;20092;-50
2021/12/18 19:03:29;;;;;;;12.63;4.85;;;28.50;79.30;;;;;;5058997;28;20013;-50
2021/12/18 19:05:56;;;;;;;9.77;4.47;;;28.40;80.20;;;;;;5065533;28;20088;-48
2021/12/18 19:08:23;;;;;;;12.32;5.00;;;28.40;80.80;;;;;;5065290;28;20042;-58
2021/12/18 19:10:51;;;;;;;8.10;4.40;;;28.40;81.00;;;;;;5065299;28;20033;-47
2021/12/18 19:13:18;;;;;;;12.05;4.35;;;28.40;81.20;;;;;;5066552;28;20021;-47
2021/12/18 19:15:44;;;;;;;10.38;4.63;;;28.40;81.30;;;;;;5066949;28;20033;-50
2021/12/18 19:18:18;;;;;;;10.35;4.35;;;28.40;81.40;;;;;;5066725;28;20021;-50
2021/12/18 19:20:54;;;;;;;9.93;4.63;;;28.40;81.50;;;;;;5066894;28;20285;-48
2021/12/18 19:23:21;;;;;;;10.20;4.55;;;28.40;81.70;;;;;;5047495;28;20023;-54
2021/12/18 19:25:48;;;;;;;10.63;4.72;;;28.40;81.80;;;;;;5065249;28;20048;-49
2021/12/18 19:28:16;;;;;;;10.95;4.20;;;28.40;82.00;;;;;;5064997;28;20025;-45
2021/12/18 19:30:43;;;;;;;9.45;4.80;;;28.40;82.00;;;;;;5064979;28;20114;-53
2021/12/18 19:33:09;;;;;;;10.15;4.75;;;28.40;82.10;;;;;;5064664;28;20032;-46
2021/12/18 19:35:36;;;;;;;9.63;4.75;;;28.40;82.10;;;;;;5064912;28;20032;-46
2021/12/18 19:38:06;;;;;;;9.77;4.63;;;28.50;82.20;;;;;;5065577;28;20009;-49
2021/12/18 19:40:34;;;;;;;10.52;4.93;;;28.40;82.20;;;;;;5066300;28;20025;-54
2021/12/18 19:43:03;;;;;;;8.20;4.60;;;28.40;82.40;;;;;;5066224;28;20265;-46
2021/12/18 19:45:30;;;;;;;9.95;4.90;;;28.40;83.00;;;;;;5066358;28;20033;-45
2021/12/18 19:47:57;;;;;;;12.30;4.82;;;28.50;82.70;;;;;;5066518;28;20088;-43
2021/12/18 19:50:25;;;;;;;10.50;5.05;;;28.50;82.60;;;;;;5066397;28;20079;-46
2021/12/18 19:52:55;;;;;;;9.02;4.50;;;28.50;82.80;;;;;;5066187;28;20021;-42
2021/12/18 19:55:23;;;;;;;9.20;4.57;;;28.50;82.90;;;;;;5066034;28;20025;-44
2021/12/18 19:57:52;;;;;;;8.07;4.47;;;28.50;83.00;;;;;;5066009;28;20139;-44
2021/12/18 20:00:21;;;;;;;11.63;4.72;;;28.50;83.00;;;;;;5065785;28;20088;-48
2021/12/18 20:05:23;;;;;;;9.50;4.75;;;28.50;83.20;;;;;;5065975;28;20017;-50
2021/12/18 20:07:51;;;;;;;11.60;4.70;;;28.50;83.20;;;;;;5065657;28;20013;-42
2021/12/18 20:10:19;;;;;;;13.20;5.30;;;28.50;83.30;;;;;;5065731;28;20025;-45
2021/12/18 20:12:46;;;;;;;15.15;4.80;;;28.50;83.20;;;;;;5065827;28;20040;-47
2021/12/18 20:15:14;;;;;;;12.85;4.63;;;28.50;83.30;;;;;;5065443;28;20055;-43
2021/12/18 20:17:47;;;;;;;11.70;4.60;;;28.50;83.30;;;;;;5065568;28;20025;-54
2021/12/18 20:20:20;;;;;;;15.68;5.55;;;28.50;83.30;;;;;;5065538;28;20024;-47
2021/12/18 20:22:47;;;;;;;10.45;4.78;;;28.50;83.40;;;;;;5065508;28;20309;-51
2021/12/18 20:25:14;;;;;;;16.75;5.20;;;28.50;83.30;;;;;;5065551;28;20308;-46
2021/12/18 20:27:42;;;;;;;12.93;4.50;;;28.50;83.20;;;;;;5065092;28;20111;-45
2021/12/18 20:30:11;;;;;;;14.32;5.03;;;28.50;83.10;;;;;;5065478;28;20024;-44
2021/12/18 20:32:38;;;;;;;16.77;5.38;;;28.50;83.20;;;;;;5065515;28;20066;-47
2021/12/18 20:35:06;;;;;;;10.68;4.70;;;28.50;83.30;;;;;;5065012;28;20021;-49
2021/12/18 20:37:34;;;;;;;12.13;5.40;;;28.50;83.30;;;;;;5065255;28;20031;-51
2021/12/18 20:40:01;;;;;;;12.77;5.35;;;28.50;83.40;;;;;;5065333;28;20021;-49
2021/12/18 20:42:28;;;;;;;13.15;5.40;;;28.50;83.50;;;;;;5065070;28;20236;-51
2021/12/18 20:44:54;;;;;;;17.05;5.60;;;28.50;83.60;;;;;;5065014;28;20024;-47
2021/12/18 20:47:21;;;;;;;11.00;5.18;;;28.50;83.70;;;;;;5065104;28;20028;-45
2021/12/18 20:49:48;;;;;;;17.92;5.97;;;28.50;83.70;;;;;;5065036;28;20062;-46
2021/12/18 20:52:15;;;;;;;12.95;5.28;;;28.50;83.80;;;;;;5047458;28;20025;-56
2021/12/18 20:54:41;;;;;;;15.63;5.57;;;28.50;83.90;;;;;;5065034;28;20020;-55
2021/12/18 20:57:08;;;;;;;12.50;5.22;;;28.50;84.00;;;;;;5065262;28;20248;-51
2021/12/18 20:59:34;;;;;;;13.85;5.88;;;28.50;84.00;;;;;;5064939;28;20024;-50
2021/12/18 21:02:01;;;;;;;14.20;5.20;;;28.50;84.10;;;;;;5065350;28;20096;-51
2021/12/18 21:04:28;;;;;;;10.93;5.20;;;28.50;84.10;;;;;;5064912;28;20080;-48
2021/12/18 21:06:56;;;;;;;10.55;4.95;;;28.60;84.30;;;;;;5065256;28;20059;-45
2021/12/18 21:09:23;;;;;;;18.17;5.80;;;28.60;84.30;;;;;;5064944;28;20126;-50
2021/12/18 21:11:49;;;;;;;13.07;5.57;;;28.60;84.30;;;;;;5065357;28;20088;-50
2021/12/18 21:14:16;;;;;;;12.98;5.65;;;28.60;84.40;;;;;;5064947;28;20064;-52
2021/12/18 21:16:44;;;;;;;12.32;5.28;;;28.60;84.40;;;;;;5064823;28;20242;-48
2021/12/18 21:19:13;;;;;;;10.98;5.60;;;28.60;84.40;;;;;;5064410;28;20247;-53
2021/12/18 21:21:41;;;;;;;9.10;5.20;;;28.60;84.60;;;;;;5064715;28;20317;-49
2021/12/18 21:24:10;;;;;;;10.38;5.47;;;28.60;84.70;;;;;;5064300;28;20309;-48
2021/12/18 21:26:36;;;;;;;10.23;4.97;;;28.50;84.60;;;;;;5063744;28;20049;-51
2021/12/18 21:29:04;;;;;;;11.73;5.18;;;28.60;84.70;;;;;;5064613;28;20307;-46
2021/12/18 21:31:31;;;;;;;9.70;5.10;;;28.60;84.70;;;;;;5064544;28;20020;-48
2021/12/18 21:36:59;;;;;;;11.75;5.35;;;28.60;84.60;;;;;;5022680;28;20025;-49
2021/12/18 21:39:26;;;;;;;12.65;5.20;;;28.60;84.50;;;;;;5055655;28;20262;-47
2021/12/18 21:41:56;;;;;;;8.70;5.32;;;28.60;84.20;;;;;;5064747;28;20051;-45
2021/12/18 21:44:26;;;;;;;8.90;5.40;;;28.60;84.50;;;;;;5064128;28;20017;-47
2021/12/18 21:46:53;;;;;;;9.55;5.05;;;28.50;84.60;;;;;;5064657;28;20092;-46
2021/12/18 21:49:19;;;;;;;12.63;5.60;;;28.50;84.70;;;;;;5064307;28;20096;-53
2021/12/18 21:51:46;;;;;;;11.18;5.30;;;28.50;84.20;;;;;;5064011;28;20104;-50
2021/12/18 21:54:15;;;;;;;9.65;4.95;;;28.50;84.10;;;;;;5063872;28;20044;-47
2021/12/18 21:56:43;;;;;;;10.15;5.28;;;28.60;84.30;;;;;;5064191;28;20092;-48
2021/12/18 21:59:11;;;;;;;10.18;4.85;;;28.50;84.40;;;;;;5064100;28;20045;-44
2021/12/18 22:01:39;;;;;;;10.57;5.13;;;28.60;84.60;;;;;;5064223;28;20017;-44
2021/12/18 22:04:07;;;;;;;10.02;4.97;;;28.60;84.50;;;;;;5063674;28;20248;-45
2021/12/18 22:06:36;;;;;;;12.13;5.55;;;28.60;84.50;;;;;;5063957;28;20036;-51
2021/12/18 22:09:04;;;;;;;9.90;5.10;;;28.60;84.60;;;;;;5063632;28;20029;-50
2021/12/18 22:11:42;;;;;;;10.77;5.07;;;28.60;84.80;;;;;;5063991;28;20021;-49
2021/12/18 22:14:11;;;;;;;10.43;5.25;;;28.60;85.00;;;;;;5063570;28;20024;-49
2021/12/18 22:16:38;;;;;;;11.35;5.63;;;28.50;84.90;;;;;;5063948;28;20048;-51
2021/12/18 22:19:04;;;;;;;12.45;5.45;;;28.60;85.10;;;;;;5063664;28;20017;-50
2021/12/18 22:21:31;;;;;;;13.52;5.80;;;28.50;84.90;;;;;;5063962;28;20043;-47
2021/12/18 22:23:58;;;;;;;15.75;5.78;;;28.50;84.70;;;;;;5063683;28;20043;-57
2021/12/18 22:26:24;;;;;;;16.70;5.90;;;28.50;84.70;;;;;;5063762;28;20064;-47
2021/12/18 22:28:51;;;;;;;15.32;6.78;;;28.50;84.90;;;;;;5063526;28;20186;-46
2021/12/18 22:31:18;;;;;;;21.23;9.82;;;28.50;85.00;;;;;;5063927;28;20096;-49
2021/12/18 22:33:44;;;;;;;35.75;18.02;;;28.50;84.90;;;;;;5063590;28;20029;-48
2021/12/18 22:36:11;;;;;;;33.30;19.13;;;28.50;84.80;;;;;;5063230;28;20228;-42
2021/12/18 22:38:38;;;;;;;30.33;15.77;;;28.50;84.90;;;;;;5066510;28;20016;-48
2021/12/18 22:41:04;;;;;;;26.30;13.93;;;28.40;85.10;;;;;;5067747;28;20248;-48
2021/12/18 22:43:31;;;;;;;23.00;12.35;;;28.50;85.50;;;;;;5067045;28;20017;-43
2021/12/18 22:45:59;;;;;;;26.65;11.95;;;28.50;86.10;;;;;;5067435;28;20247;-50
2021/12/18 22:48:26;;;;;;;27.50;11.35;;;28.40;86.30;;;;;;5067465;28;20021;-46
2021/12/18 22:50:52;;;;;;;22.95;10.77;;;28.50;86.70;;;;;;5067452;28;20293;-49
2021/12/18 22:53:19;;;;;;;23.42;10.68;;;28.50;86.90;;;;;;5067239;28;20071;-46
2021/12/18 22:55:45;;;;;;;19.48;10.93;;;28.40;86.90;;;;;;5067467;28;20036;-48
2021/12/18 22:58:12;;;;;;;24.45;11.95;;;28.40;87.10;;;;;;5049249;28;20044;-43
2021/12/18 23:00:40;;;;;;;21.38;11.90;;;28.40;87.30;;;;;;5067405;28;20103;-46
2021/12/18 23:03:08;;;;;;;19.52;11.52;;;28.40;87.50;;;;;;5067243;28;20036;-48
2021/12/18 23:05:36;;;;;;;20.02;10.40;;;28.40;87.60;;;;;;5067069;28;20064;-48
2021/12/18 23:08:06;;;;;;;18.60;10.07;;;28.40;87.60;;;;;;5067249;28;20315;-50
2021/12/18 23:10:33;;;;;;;19.15;9.30;;;28.40;87.70;;;;;;5066939;28;20033;-49
2021/12/18 23:13:27;;;;;;;18.30;9.85;;;28.40;87.80;;;;;;5067163;28;20232;-50
2021/12/18 23:16:00;;;;;;;18.10;10.90;;;28.30;87.80;;;;;;5066818;28;20059;-52
2021/12/18 23:18:40;;;;;;;24.17;11.25;;;28.30;87.80;;;;;;5067324;28;20106;-47
2021/12/18 23:21:07;;;;;;;19.83;10.50;;;28.30;87.90;;;;;;5066746;28;20066;-50
2021/12/18 23:23:35;;;;;;;21.73;10.38;;;28.30;88.10;;;;;;5066610;28;20017;-46
2021/12/18 23:26:02;;;;;;;20.63;10.55;;;28.30;88.20;;;;;;5066542;28;20033;-50
2021/12/18 23:28:29;;;;;;;20.52;11.05;;;28.30;88.30;;;;;;5066724;28;20025;-50
2021/12/18 23:30:56;;;;;;;19.75;9.40;;;28.30;88.40;;;;;;5066677;28;20058;-49
2021/12/18 23:33:23;;;;;;;17.27;7.95;;;28.30;88.40;;;;;;5060939;28;20040;-51
2021/12/18 23:35:53;;;;;;;16.20;7.32;;;28.20;88.40;;;;;;5066490;28;20052;-45
2021/12/18 23:38:22;;;;;;;19.27;7.57;;;28.20;88.40;;;;;;5066146;28;20063;-50
2021/12/18 23:40:48;;;;;;;15.18;7.70;;;28.20;88.20;;;;;;5064789;28;20043;-49
2021/12/18 23:48:33;;;;;;;18.73;7.03;;;28.20;88.00;;;;;;5065615;28;20016;-52
2021/12/18 23:50:59;;;;;;;178.65;22.23;;;28.20;87.90;;;;;;5059219;28;20024;-51
2021/12/18 23:53:26;;;;;;;47.22;9.88;;;28.10;87.70;;;;;;5059415;28;20021;-51
2021/12/18 23:55:52;;;;;;;41.72;8.80;;;28.10;87.60;;;;;;5055288;28;20025;-50
2021/12/18 23:58:19;;;;;;;22.75;7.50;;;28.10;87.60;;;;;;5045702;28;20088;-50
